sensor_id;sensor_type;location;lat;lon;timestamp;pressure;altitude;pressure_sealevel;temperature;humidity
44044;BME280;29709;52.396;16.796;2023-05-19T00:01:35;102867.32;;;12.38;54.68
44044;BME280;29709;52.396;16.796;2023-05-19T00:04:50;102871.83;;;12.39;54.35
44044;BME280;29709;52.396;16.796;2023-05-19T00:08:03;102861.59;;;12.30;54.40
44044;BME280;29709;52.396;16.796;2023-05-19T00:11:17;102861.59;;;12.30;54.53
44044;BME280;29709;52.396;16.796;2023-05-19T00:14:30;102865.47;;;12.28;54.74
44044;BME280;29709;52.396;16.796;2023-05-19T00:17:44;102865.14;;;12.21;54.72
44044;BME280;29709;52.396;16.796;2023-05-19T00:20:58;102859.51;;;12.11;55.04
44044;BME280;29709;52.396;16.796;2023-05-19T00:24:11;102855.25;;;12.07;55.17
44044;BME280;29709;52.396;16.796;2023-05-19T00:27:25;102852.75;;;12.04;55.62
44044;BME280;29709;52.396;16.796;2023-05-19T00:30:38;102848.98;;;12.05;55.36
44044;BME280;29709;52.396;16.796;2023-05-19T00:33:51;102851.27;;;12.00;55.76
44044;BME280;29709;52.396;16.796;2023-05-19T00:37:04;102849.38;;;12.01;55.67
44044;BME280;29709;52.396;16.796;2023-05-19T00:40:17;102849.38;;;12.01;55.73
44044;BME280;29709;52.396;16.796;2023-05-19T00:43:31;102849.61;;;11.98;55.85
44044;BME280;29709;52.396;16.796;2023-05-19T00:46:47;102848.13;;;11.94;56.47
44044;BME280;29709;52.396;16.796;2023-05-19T00:50:00;102850.89;;;11.94;55.84
44044;BME280;29709;52.396;16.796;2023-05-19T00:53:16;102852.37;;;11.98;55.86
44044;BME280;29709;52.396;16.796;2023-05-19T00:56:30;102848.52;;;11.89;56.06
44044;BME280;29709;52.396;16.796;2023-05-19T00:59:44;102852.66;;;11.83;56.01
44044;BME280;29709;52.396;16.796;2023-05-19T01:02:57;102847.59;;;11.77;56.69
44044;BME280;29709;52.396;16.796;2023-05-19T01:06:11;102848.76;;;11.86;57.31
44044;BME280;29709;52.396;16.796;2023-05-19T01:09:24;102849.88;;;11.95;56.84
44044;BME280;29709;52.396;16.796;2023-05-19T01:12:38;102847.75;;;11.87;56.44
44044;BME280;29709;52.396;16.796;2023-05-19T01:16:03;102846.73;;;11.77;56.41
44044;BME280;29709;52.396;16.796;2023-05-19T01:19:31;102857.88;;;11.64;56.65
44044;BME280;29709;52.396;16.796;2023-05-19T01:33:08;102870.90;;;11.40;57.70
44044;BME280;29709;52.396;16.796;2023-05-19T01:36:25;102871.38;;;11.34;58.03
44044;BME280;29709;52.396;16.796;2023-05-19T01:39:39;102865.37;;;11.28;58.31
44044;BME280;29709;52.396;16.796;2023-05-19T01:42:56;102874.63;;;11.27;58.99
44044;BME280;29709;52.396;16.796;2023-05-19T01:46:10;102870.61;;;11.20;59.12
44044;BME280;29709;52.396;16.796;2023-05-19T01:49:24;102876.73;;;11.24;58.91
44044;BME280;29709;52.396;16.796;2023-05-19T01:52:37;102879.87;;;11.19;59.43
44044;BME280;29709;52.396;16.796;2023-05-19T01:55:53;102885.50;;;11.18;59.69
44044;BME280;29709;52.396;16.796;2023-05-19T01:59:15;102888.24;;;11.18;59.34
44044;BME280;29709;52.396;16.796;2023-05-19T02:09:28;102873.48;;;11.19;60.39
44044;BME280;29709;52.396;16.796;2023-05-19T02:12:44;102879.39;;;11.25;58.97
44044;BME280;29709;52.396;16.796;2023-05-19T02:16:03;102874.85;;;11.24;59.78
44044;BME280;29709;52.396;16.796;2023-05-19T02:19:22;102869.88;;;11.30;59.59
44044;BME280;29709;52.396;16.796;2023-05-19T02:22:35;102875.52;;;11.28;58.66
44044;BME280;29709;52.396;16.796;2023-05-19T02:25:51;102875.87;;;11.23;59.75
44044;BME280;29709;52.396;16.796;2023-05-19T02:29:05;102873.11;;;11.23;59.95
44044;BME280;29709;52.396;16.796;2023-05-19T02:32:19;102866.73;;;11.23;59.29
44044;BME280;29709;52.396;16.796;2023-05-19T02:35:32;102868.60;;;11.22;59.51
44044;BME280;29709;52.396;16.796;2023-05-19T02:38:45;102867.58;;;11.12;59.90
44044;BME280;29709;52.396;16.796;2023-05-19T02:41:58;102866.43;;;11.04;59.87
44044;BME280;29709;52.396;16.796;2023-05-19T02:45:13;102867.27;;;10.93;60.50
44044;BME280;29709;52.396;16.796;2023-05-19T02:48:26;102866.15;;;10.84;60.63
44044;BME280;29709;52.396;16.796;2023-05-19T02:51:39;102858.36;;;10.78;61.20
44044;BME280;29709;52.396;16.796;2023-05-19T02:54:52;102860.48;;;10.75;61.99
44044;BME280;29709;52.396;16.796;2023-05-19T02:58:05;102864.11;;;10.75;61.72
44044;BME280;29709;52.396;16.796;2023-05-19T03:01:19;102871.24;;;10.78;61.04
44044;BME280;29709;52.396;16.796;2023-05-19T03:04:34;102867.86;;;10.74;62.30
44044;BME280;29709;52.396;16.796;2023-05-19T03:07:55;102869.74;;;10.74;62.68
44044;BME280;29709;52.396;16.796;2023-05-19T03:11:08;102861.15;;;10.89;62.49
44044;BME280;29709;52.396;16.796;2023-05-19T03:14:22;102862.30;;;10.98;61.29
44044;BME280;29709;52.396;16.796;2023-05-19T03:17:36;102853.77;;;10.90;61.28
44044;BME280;29709;52.396;16.796;2023-05-19T03:20:49;102851.98;;;10.78;61.99
44044;BME280;29709;52.396;16.796;2023-05-19T03:24:03;102855.82;;;10.64;62.70
44044;BME280;29709;52.396;16.796;2023-05-19T03:27:16;102854.28;;;10.60;63.57
44044;BME280;29709;52.396;16.796;2023-05-19T03:30:29;102843.45;;;10.69;63.11
44044;BME280;29709;52.396;16.796;2023-05-19T03:33:42;102853.45;;;10.70;62.65
44044;BME280;29709;52.396;16.796;2023-05-19T03:36:56;102850.37;;;10.75;62.96
44044;BME280;29709;52.396;16.796;2023-05-19T03:40:09;102857.36;;;10.79;63.30
44044;BME280;29709;52.396;16.796;2023-05-19T03:43:22;102844.48;;;10.80;62.81
44044;BME280;29709;52.396;16.796;2023-05-19T03:46:36;102858.48;;;10.77;63.22
44044;BME280;29709;52.396;16.796;2023-05-19T03:49:49;102857.48;;;10.78;63.90
44044;BME280;29709;52.396;16.796;2023-05-19T03:53:02;102862.52;;;10.84;64.10
44044;BME280;29709;52.396;16.796;2023-05-19T03:56:15;102860.68;;;10.95;63.34
44044;BME280;29709;52.396;16.796;2023-05-19T03:59:30;102863.33;;;11.08;62.55
44044;BME280;29709;52.396;16.796;2023-05-19T04:02:43;102869.34;;;11.13;62.81
44044;BME280;29709;52.396;16.796;2023-05-19T04:05:56;102863.95;;;11.12;62.53
44044;BME280;29709;52.396;16.796;2023-05-19T04:09:11;102864.71;;;11.14;63.35
44044;BME280;29709;52.396;16.796;2023-05-19T04:12:25;102864.86;;;11.23;63.65
44044;BME280;29709;52.396;16.796;2023-05-19T04:15:39;102875.27;;;11.42;62.56
44044;BME280;29709;52.396;16.796;2023-05-19T04:18:53;102871.90;;;11.50;62.99
44044;BME280;29709;52.396;16.796;2023-05-19T04:22:06;102871.29;;;11.58;63.54
44044;BME280;29709;52.396;16.796;2023-05-19T04:25:19;102861.90;;;11.71;62.56
44044;BME280;29709;52.396;16.796;2023-05-19T04:28:32;102869.94;;;11.85;62.40
44044;BME280;29709;52.396;16.796;2023-05-19T04:31:51;102869.42;;;12.03;61.71
44044;BME280;29709;52.396;16.796;2023-05-19T04:35:05;102859.40;;;12.02;61.82
44044;BME280;29709;52.396;16.796;2023-05-19T04:38:18;102869.02;;;12.07;61.47
44044;BME280;29709;52.396;16.796;2023-05-19T04:41:33;102875.94;;;12.02;61.48
44044;BME280;29709;52.396;16.796;2023-05-19T04:44:46;102872.44;;;12.00;61.65
44044;BME280;29709;52.396;16.796;2023-05-19T04:48:03;102873.30;;;12.00;61.79
44044;BME280;29709;52.396;16.796;2023-05-19T04:51:16;102872.18;;;11.92;61.82
44044;BME280;29709;52.396;16.796;2023-05-19T04:54:30;102871.66;;;11.98;62.67
44044;BME280;29709;52.396;16.796;2023-05-19T04:57:43;102873.02;;;12.14;61.78
44044;BME280;29709;52.396;16.796;2023-05-19T05:00:56;102873.53;;;12.20;61.42
44044;BME280;29709;52.396;16.796;2023-05-19T05:04:10;102872.12;;;12.25;61.98
44044;BME280;29709;52.396;16.796;2023-05-19T05:07:23;102872.98;;;12.37;61.15
44044;BME280;29709;52.396;16.796;2023-05-19T05:10:36;102873.61;;;12.40;61.28
44044;BME280;29709;52.396;16.796;2023-05-19T05:13:50;102882.85;;;12.51;61.12
44044;BME280;29709;52.396;16.796;2023-05-19T05:17:04;102881.04;;;12.61;60.88
44044;BME280;29709;52.396;16.796;2023-05-19T05:20:18;102873.66;;;12.61;60.95
44044;BME280;29709;52.396;16.796;2023-05-19T05:23:32;102878.11;;;12.74;60.87
44044;BME280;29709;52.396;16.796;2023-05-19T05:26:45;102883.18;;;12.89;60.91
44044;BME280;29709;52.396;16.796;2023-05-19T05:29:59;102878.69;;;13.09;60.16
44044;BME280;29709;52.396;16.796;2023-05-19T05:33:13;102883.02;;;13.23;60.08
44044;BME280;29709;52.396;16.796;2023-05-19T05:36:27;102881.19;;;13.33;59.57
44044;BME280;29709;52.396;16.796;2023-05-19T05:39:42;102877.73;;;13.62;58.96
44044;BME280;29709;52.396;16.796;2023-05-19T05:42:55;102881.13;;;13.75;58.84
44044;BME280;29709;52.396;16.796;2023-05-19T05:46:10;102870.66;;;14.09;58.59
44044;BME280;29709;52.396;16.796;2023-05-19T05:49:24;102863.30;;;14.29;57.67
44044;BME280;29709;52.396;16.796;2023-05-19T05:52:38;102866.23;;;14.47;57.45
44044;BME280;29709;52.396;16.796;2023-05-19T05:55:53;102857.79;;;14.38;56.79
44044;BME280;29709;52.396;16.796;2023-05-19T05:59:06;102863.48;;;14.47;57.19
44044;BME280;29709;52.396;16.796;2023-05-19T06:02:19;102873.68;;;14.56;57.43
44044;BME280;29709;52.396;16.796;2023-05-19T06:05:34;102882.88;;;14.76;56.64
44044;BME280;29709;52.396;16.796;2023-05-19T06:08:48;102873.13;;;14.81;56.81
44044;BME280;29709;52.396;16.796;2023-05-19T06:12:01;102870.63;;;14.97;56.64
44044;BME280;29709;52.396;16.796;2023-05-19T06:15:14;102883.29;;;15.10;56.48
44044;BME280;29709;52.396;16.796;2023-05-19T06:18:28;102884.00;;;15.21;56.44
44044;BME280;29709;52.396;16.796;2023-05-19T06:21:41;102879.65;;;15.19;54.91
44044;BME280;29709;52.396;16.796;2023-05-19T06:24:55;102877.64;;;15.11;55.57
44044;BME280;29709;52.396;16.796;2023-05-19T06:28:08;102880.25;;;15.22;56.16
44044;BME280;29709;52.396;16.796;2023-05-19T06:31:21;102885.48;;;15.25;55.69
44044;BME280;29709;52.396;16.796;2023-05-19T06:34:34;102888.10;;;15.27;55.80
44044;BME280;29709;52.396;16.796;2023-05-19T06:37:52;102881.95;;;15.43;55.86
44044;BME280;29709;52.396;16.796;2023-05-19T06:41:05;102883.23;;;15.48;55.45
44044;BME280;29709;52.396;16.796;2023-05-19T06:44:18;102888.33;;;15.63;55.59
44044;BME280;29709;52.396;16.796;2023-05-19T06:47:31;102889.04;;;15.74;55.96
44044;BME280;29709;52.396;16.796;2023-05-19T06:50:44;102880.53;;;15.85;55.75
44044;BME280;29709;52.396;16.796;2023-05-19T06:53:57;102887.22;;;15.83;54.42
44044;BME280;29709;52.396;16.796;2023-05-19T06:57:10;102880.92;;;15.91;54.64
44044;BME280;29709;52.396;16.796;2023-05-19T07:00:24;102891.05;;;16.09;54.32
44044;BME280;29709;52.396;16.796;2023-05-19T07:03:37;102890.73;;;16.12;54.12
44044;BME280;29709;52.396;16.796;2023-05-19T07:06:51;102888.39;;;16.18;53.58
44044;BME280;29709;52.396;16.796;2023-05-19T07:10:07;102888.63;;;16.24;54.05
44044;BME280;29709;52.396;16.796;2023-05-19T07:13:20;102892.23;;;16.34;53.12
44044;BME280;29709;52.396;16.796;2023-05-19T07:16:34;102890.26;;;16.44;53.02
44044;BME280;29709;52.396;16.796;2023-05-19T07:19:47;102882.90;;;16.53;52.29
44044;BME280;29709;52.396;16.796;2023-05-19T07:23:00;102875.00;;;16.58;53.24
44044;BME280;29709;52.396;16.796;2023-05-19T07:26:14;102883.42;;;16.84;52.74
44044;BME280;29709;52.396;16.796;2023-05-19T07:29:27;102876.38;;;16.90;50.69
44044;BME280;29709;52.396;16.796;2023-05-19T07:32:41;102879.06;;;16.82;50.81
44044;BME280;29709;52.396;16.796;2023-05-19T07:35:54;102886.52;;;16.81;51.03
44044;BME280;29709;52.396;16.796;2023-05-19T07:39:07;102885.24;;;16.76;51.34
44044;BME280;29709;52.396;16.796;2023-05-19T07:42:20;102880.19;;;16.71;50.79
44044;BME280;29709;52.396;16.796;2023-05-19T07:45:34;102880.73;;;16.74;51.45
44044;BME280;29709;52.396;16.796;2023-05-19T07:48:47;102869.70;;;16.83;51.37
44044;BME280;29709;52.396;16.796;2023-05-19T07:52:00;102875.80;;;16.86;51.40
44044;BME280;29709;52.396;16.796;2023-05-19T07:55:16;102865.56;;;16.87;50.46
44044;BME280;29709;52.396;16.796;2023-05-19T07:58:31;102870.33;;;16.94;51.94
44044;BME280;29709;52.396;16.796;2023-05-19T08:01:44;102871.81;;;17.07;51.16
44044;BME280;29709;52.396;16.796;2023-05-19T08:04:57;102866.34;;;17.15;50.43
44044;BME280;29709;52.396;16.796;2023-05-19T08:08:11;102859.81;;;17.24;50.79
44044;BME280;29709;52.396;16.796;2023-05-19T08:11:28;102868.23;;;17.40;50.44
44044;BME280;29709;52.396;16.796;2023-05-19T08:14:41;102868.98;;;17.42;50.25
44044;BME280;29709;52.396;16.796;2023-05-19T08:17:54;102871.25;;;17.47;49.23
44044;BME280;29709;52.396;16.796;2023-05-19T08:21:07;102863.69;;;17.57;48.64
44044;BME280;29709;52.396;16.796;2023-05-19T08:24:21;102869.77;;;17.60;48.71
44044;BME280;29709;52.396;16.796;2023-05-19T08:28:09;102866.34;;;17.67;48.69
44044;BME280;29709;52.396;16.796;2023-05-19T08:31:22;102868.91;;;17.60;49.48
44044;BME280;29709;52.396;16.796;2023-05-19T08:34:36;102868.03;;;17.59;48.75
44044;BME280;29709;52.396;16.796;2023-05-19T08:37:50;102869.95;;;17.59;48.74
44044;BME280;29709;52.396;16.796;2023-05-19T08:41:03;102872.18;;;17.55;49.12
44044;BME280;29709;52.396;16.796;2023-05-19T08:44:17;102870.55;;;17.71;48.86
44044;BME280;29709;52.396;16.796;2023-05-19T08:47:32;102871.42;;;17.71;48.71
44044;BME280;29709;52.396;16.796;2023-05-19T08:54:15;102867.55;;;17.38;50.13
44044;BME280;29709;52.396;16.796;2023-05-19T08:57:31;102866.20;;;17.42;48.77
44044;BME280;29709;52.396;16.796;2023-05-19T09:00:46;102867.08;;;17.43;49.57
44044;BME280;29709;52.396;16.796;2023-05-19T09:04:01;102862.05;;;17.46;48.71
44044;BME280;29709;52.396;16.796;2023-05-19T09:07:15;102857.08;;;17.58;49.70
44044;BME280;29709;52.396;16.796;2023-05-19T09:10:28;102865.39;;;17.76;48.58
44044;BME280;29709;52.396;16.796;2023-05-19T09:13:42;102863.84;;;17.55;48.62
44044;BME280;29709;52.396;16.796;2023-05-19T09:16:55;102857.42;;;17.55;48.37
44044;BME280;29709;52.396;16.796;2023-05-19T09:20:09;102862.09;;;17.72;48.17
44044;BME280;29709;52.396;16.796;2023-05-19T09:23:31;102855.23;;;17.93;48.51
44044;BME280;29709;52.396;16.796;2023-05-19T09:26:45;102863.27;;;18.04;47.22
44044;BME280;29709;52.396;16.796;2023-05-19T09:30:06;102866.54;;;17.99;47.28
44044;BME280;29709;52.396;16.796;2023-05-19T09:33:21;102857.37;;;18.07;47.42
44044;BME280;29709;52.396;16.796;2023-05-19T09:36:34;102852.54;;;18.17;47.61
44044;BME280;29709;52.396;16.796;2023-05-19T09:39:49;102852.75;;;18.24;47.08
44044;BME280;29709;52.396;16.796;2023-05-19T09:43:07;102853.20;;;18.11;46.32
44044;BME280;29709;52.396;16.796;2023-05-19T09:46:24;102845.24;;;17.82;46.06
44044;BME280;29709;52.396;16.796;2023-05-19T09:49:45;102852.36;;;17.76;47.83
44044;BME280;29709;52.396;16.796;2023-05-19T09:52:59;102853.58;;;17.74;48.60
44044;BME280;29709;52.396;16.796;2023-05-19T09:56:13;102847.67;;;17.77;48.24
44044;BME280;29709;52.396;16.796;2023-05-19T09:59:28;102848.53;;;17.77;46.98
44044;BME280;29709;52.396;16.796;2023-05-19T10:02:42;102850.88;;;17.64;48.70
44044;BME280;29709;52.396;16.796;2023-05-19T10:05:56;102853.06;;;17.52;47.82
44044;BME280;29709;52.396;16.796;2023-05-19T10:09:10;102850.00;;;17.64;49.68
44044;BME280;29709;52.396;16.796;2023-05-19T10:12:25;102850.65;;;17.57;47.94
44044;BME280;29709;52.396;16.796;2023-05-19T10:15:41;102846.24;;;17.47;49.17
44044;BME280;29709;52.396;16.796;2023-05-19T10:18:56;102846.13;;;17.56;48.90
44044;BME280;29709;52.396;16.796;2023-05-19T10:22:11;102842.19;;;17.67;47.95
44044;BME280;29709;52.396;16.796;2023-05-19T10:25:24;102845.23;;;17.74;47.85
44044;BME280;29709;52.396;16.796;2023-05-19T10:28:40;102855.40;;;17.65;47.41
44044;BME280;29709;52.396;16.796;2023-05-19T10:31:58;102845.19;;;17.48;47.47
44044;BME280;29709;52.396;16.796;2023-05-19T10:38:52;102852.67;;;17.47;47.96
44044;BME280;29709;52.396;16.796;2023-05-19T10:42:13;102859.70;;;17.34;47.64
44044;BME280;29709;52.396;16.796;2023-05-19T10:45:35;102857.20;;;17.22;48.39
44044;BME280;29709;52.396;16.796;2023-05-19T10:48:51;102843.93;;;17.16;48.22
44044;BME280;29709;52.396;16.796;2023-05-19T10:55:58;102846.02;;;17.14;48.77
44044;BME280;29709;52.396;16.796;2023-05-19T10:58:55;102845.07;;;17.06;48.63
44044;BME280;29709;52.396;16.796;2023-05-19T11:02:09;102848.11;;;16.94;49.36
44044;BME280;29709;52.396;16.796;2023-05-19T11:05:29;102844.86;;;16.99;49.06
44044;BME280;29709;52.396;16.796;2023-05-19T11:08:42;102848.51;;;16.99;49.28
44044;BME280;29709;52.396;16.796;2023-05-19T11:12:01;102853.23;;;17.07;49.06
44044;BME280;29709;52.396;16.796;2023-05-19T11:15:15;102844.10;;;17.15;49.49
44044;BME280;29709;52.396;16.796;2023-05-19T11:18:30;102841.39;;;17.23;50.48
44044;BME280;29709;52.396;16.796;2023-05-19T11:21:48;102844.38;;;17.29;48.78
44044;BME280;29709;52.396;16.796;2023-05-19T11:25:07;102848.92;;;17.30;47.77
44044;BME280;29709;52.396;16.796;2023-05-19T11:28:22;102841.66;;;17.38;48.16
44044;BME280;29709;52.396;16.796;2023-05-19T11:31:42;102832.68;;;17.44;49.12
44044;BME280;29709;52.396;16.796;2023-05-19T11:34:57;102832.92;;;17.58;50.10
44044;BME280;29709;52.396;16.796;2023-05-19T11:38:12;102826.98;;;17.79;48.62
44044;BME280;29709;52.396;16.796;2023-05-19T11:41:25;102827.28;;;18.10;48.64
44044;BME280;29709;52.396;16.796;2023-05-19T11:44:43;102817.60;;;18.31;47.07
44044;BME280;29709;52.396;16.796;2023-05-19T11:47:59;102825.77;;;18.32;47.68
44044;BME280;29709;52.396;16.796;2023-05-19T11:51:12;102829.26;;;18.26;48.21
44044;BME280;29709;52.396;16.796;2023-05-19T11:54:30;102822.68;;;18.35;47.62
44044;BME280;29709;52.396;16.796;2023-05-19T12:01:10;102844.01;;;17.76;49.19
44044;BME280;29709;52.396;16.796;2023-05-19T12:04:23;102843.84;;;17.78;48.85
44044;BME280;29709;52.396;16.796;2023-05-19T12:07:37;102841.23;;;17.76;48.15
44044;BME280;29709;52.396;16.796;2023-05-19T12:10:51;102841.23;;;17.76;48.81
44044;BME280;29709;52.396;16.796;2023-05-19T12:14:04;102843.32;;;17.74;48.50
44044;BME280;29709;52.396;16.796;2023-05-19T12:17:19;102844.36;;;17.73;47.38
44044;BME280;29709;52.396;16.796;2023-05-19T12:20:33;102835.70;;;17.58;47.34
44044;BME280;29709;52.396;16.796;2023-05-19T12:23:49;102835.88;;;17.57;48.70
44044;BME280;29709;52.396;16.796;2023-05-19T12:27:09;102836.40;;;17.60;48.23
44044;BME280;29709;52.396;16.796;2023-05-19T12:30:26;102837.84;;;17.65;49.12
44044;BME280;29709;52.396;16.796;2023-05-19T12:33:44;102833.02;;;17.41;50.20
44044;BME280;29709;52.396;16.796;2023-05-19T12:36:58;102827.22;;;17.34;50.31
44044;BME280;29709;52.396;16.796;2023-05-19T12:40:15;102824.78;;;17.31;48.86
44044;BME280;29709;52.396;16.796;2023-05-19T12:43:28;102823.68;;;17.24;49.87
44044;BME280;29709;52.396;16.796;2023-05-19T12:46:43;102822.30;;;17.28;49.51
44044;BME280;29709;52.396;16.796;2023-05-19T12:50:02;102829.71;;;17.19;49.38
44044;BME280;29709;52.396;16.796;2023-05-19T12:53:16;102825.76;;;17.22;48.16
44044;BME280;29709;52.396;16.796;2023-05-19T12:56:29;102823.18;;;17.28;49.92
44044;BME280;29709;52.396;16.796;2023-05-19T12:59:42;102828.03;;;17.26;48.88
44044;BME280;29709;52.396;16.796;2023-05-19T13:03:03;102834.35;;;17.37;49.63
44044;BME280;29709;52.396;16.796;2023-05-19T13:06:17;102816.54;;;17.21;49.51
44044;BME280;29709;52.396;16.796;2023-05-19T13:09:30;102821.44;;;17.27;49.09
44044;BME280;29709;52.396;16.796;2023-05-19T13:12:48;102821.50;;;17.36;49.88
44044;BME280;29709;52.396;16.796;2023-05-19T13:16:01;102826.83;;;17.29;50.05
44044;BME280;29709;52.396;16.796;2023-05-19T13:19:16;102831.38;;;17.30;50.31
44044;BME280;29709;52.396;16.796;2023-05-19T13:22:30;102827.06;;;17.10;50.46
44044;BME280;29709;52.396;16.796;2023-05-19T13:25:43;102833.42;;;17.02;50.93
44044;BME280;29709;52.396;16.796;2023-05-19T13:28:56;102826.30;;;16.99;51.46
44044;BME280;29709;52.396;16.796;2023-05-19T13:32:09;102824.82;;;17.13;51.46
44044;BME280;29709;52.396;16.796;2023-05-19T13:35:23;102822.20;;;17.12;51.63
44044;BME280;29709;52.396;16.796;2023-05-19T13:38:36;102826.66;;;17.05;50.66
44044;BME280;29709;52.396;16.796;2023-05-19T13:41:49;102822.94;;;16.96;50.76
44044;BME280;29709;52.396;16.796;2023-05-19T13:45:03;102820.16;;;16.96;51.28
44044;BME280;29709;52.396;16.796;2023-05-19T13:48:17;102816.92;;;17.00;50.80
44044;BME280;29709;52.396;16.796;2023-05-19T13:51:30;102813.98;;;17.02;50.61
44044;BME280;29709;52.396;16.796;2023-05-19T13:54:43;102816.26;;;17.07;51.90
44044;BME280;29709;52.396;16.796;2023-05-19T13:57:56;102808.18;;;16.95;50.97
44044;BME280;29709;52.396;16.796;2023-05-19T14:01:09;102808.09;;;17.05;50.84
44044;BME280;29709;52.396;16.796;2023-05-19T14:04:23;102813.00;;;17.11;50.35
44044;BME280;29709;52.396;16.796;2023-05-19T14:07:36;102801.32;;;17.08;50.04
44044;BME280;29709;52.396;16.796;2023-05-19T14:10:50;102803.64;;;17.12;51.28
44044;BME280;29709;52.396;16.796;2023-05-19T14:14:04;102805.26;;;17.23;50.97
44044;BME280;29709;52.396;16.796;2023-05-19T14:17:17;102810.59;;;17.16;50.94
44044;BME280;29709;52.396;16.796;2023-05-19T14:20:31;102805.47;;;17.03;51.99
44044;BME280;29709;52.396;16.796;2023-05-19T14:23:44;102805.41;;;16.95;52.87
44044;BME280;29709;52.396;16.796;2023-05-19T14:26:58;102806.27;;;16.96;54.18
44044;BME280;29709;52.396;16.796;2023-05-19T14:30:11;102807.92;;;17.07;53.83
44044;BME280;29709;52.396;16.796;2023-05-19T14:33:25;102810.39;;;17.10;54.01
44044;BME280;29709;52.396;16.796;2023-05-19T14:36:38;102810.42;;;16.92;54.75
44044;BME280;29709;52.396;16.796;2023-05-19T14:39:51;102811.39;;;16.83;54.35
44044;BME280;29709;52.396;16.796;2023-05-19T14:43:04;102803.84;;;16.75;54.86
44044;BME280;29709;52.396;16.796;2023-05-19T14:46:17;102812.02;;;16.59;54.86
44044;BME280;29709;52.396;16.796;2023-05-19T14:49:32;102821.20;;;16.41;54.92
44044;BME280;29709;52.396;16.796;2023-05-19T14:52:45;102819.42;;;16.23;56.14
44044;BME280;29709;52.396;16.796;2023-05-19T14:55:58;102824.74;;;16.16;56.99
44044;BME280;29709;52.396;16.796;2023-05-19T14:59:14;102823.34;;;16.02;56.89
44044;BME280;29709;52.396;16.796;2023-05-19T15:02:27;102835.16;;;16.04;57.95
44044;BME280;29709;52.396;16.796;2023-05-19T15:05:41;102836.15;;;16.13;57.41
44044;BME280;29709;52.396;16.796;2023-05-19T15:12:22;102824.43;;;16.19;57.28
44044;BME280;29709;52.396;16.796;2023-05-19T15:15:35;102824.33;;;16.11;57.44
44044;BME280;29709;52.396;16.796;2023-05-19T15:18:48;102827.80;;;16.13;57.56
44044;BME280;29709;52.396;16.796;2023-05-19T15:22:03;102824.74;;;16.16;57.55
44044;BME280;29709;52.396;16.796;2023-05-19T15:25:16;102821.11;;;16.15;57.08
44044;BME280;29709;52.396;16.796;2023-05-19T15:28:29;102824.80;;;16.06;57.50
44044;BME280;29709;52.396;16.796;2023-05-19T15:31:51;102821.45;;;16.03;58.15
44044;BME280;29709;52.396;16.796;2023-05-19T15:35:05;102836.98;;;15.96;58.04
44044;BME280;29709;52.396;16.796;2023-05-19T15:38:18;102826.17;;;15.93;58.35
44044;BME280;29709;52.396;16.796;2023-05-19T15:41:33;102825.78;;;15.87;57.99
44044;BME280;29709;52.396;16.796;2023-05-19T15:44:46;102824.79;;;15.79;58.65
44044;BME280;29709;52.396;16.796;2023-05-19T15:48:00;102816.64;;;15.77;58.45
44044;BME280;29709;52.396;16.796;2023-05-19T15:51:16;102819.81;;;15.82;59.49
44044;BME280;29709;52.396;16.796;2023-05-19T15:54:29;102817.03;;;15.82;59.41
44044;BME280;29709;52.396;16.796;2023-05-19T15:57:42;102815.88;;;15.85;59.93
44044;BME280;29709;52.396;16.796;2023-05-19T16:00:55;102825.23;;;15.84;59.85
44044;BME280;29709;52.396;16.796;2023-05-19T16:04:09;102821.70;;;15.82;59.55
44044;BME280;29709;52.396;16.796;2023-05-19T16:07:22;102818.58;;;15.67;60.80
44044;BME280;29709;52.396;16.796;2023-05-19T16:10:35;102821.70;;;15.82;60.58
44044;BME280;29709;52.396;16.796;2023-05-19T16:13:49;102819.69;;;15.84;59.81
44044;BME280;29709;52.396;16.796;2023-05-19T16:17:03;102822.74;;;15.81;60.61
44044;BME280;29709;52.396;16.796;2023-05-19T16:20:21;102812.24;;;15.84;60.60
44044;BME280;29709;52.396;16.796;2023-05-19T16:23:39;102814.13;;;15.84;60.72
44044;BME280;29709;52.396;16.796;2023-05-19T16:26:53;102818.42;;;15.69;61.03
44044;BME280;29709;52.396;16.796;2023-05-19T16:30:07;102817.28;;;15.62;61.57
44044;BME280;29709;52.396;16.796;2023-05-19T16:33:20;102808.20;;;15.69;61.57
44044;BME280;29709;52.396;16.796;2023-05-19T16:36:33;102804.53;;;15.78;61.29
44044;BME280;29709;52.396;16.796;2023-05-19T16:39:46;102806.10;;;15.81;61.06
44044;BME280;29709;52.396;16.796;2023-05-19T16:43:00;102808.88;;;15.81;61.84
44044;BME280;29709;52.396;16.796;2023-05-19T16:46:13;102809.46;;;15.84;60.96
44044;BME280;29709;52.396;16.796;2023-05-19T16:49:26;102812.24;;;15.84;61.00
44044;BME280;29709;52.396;16.796;2023-05-19T16:52:40;102810.66;;;15.72;61.22
44044;BME280;29709;52.396;16.796;2023-05-19T16:55:53;102816.13;;;15.64;61.54
44044;BME280;29709;52.396;16.796;2023-05-19T16:59:08;102812.33;;;15.55;62.02
44044;BME280;29709;52.396;16.796;2023-05-19T17:02:21;102805.75;;;15.56;62.03
44044;BME280;29709;52.396;16.796;2023-05-19T17:05:34;102802.83;;;15.58;61.46
44044;BME280;29709;52.396;16.796;2023-05-19T17:08:53;102798.91;;;15.51;62.20
44044;BME280;29709;52.396;16.796;2023-05-19T17:12:07;102806.30;;;15.33;63.30
44044;BME280;29709;52.396;16.796;2023-05-19T17:15:20;102805.26;;;15.34;63.12
44044;BME280;29709;52.396;16.796;2023-05-19T17:18:34;102808.91;;;15.34;63.25